sensor_id;sensor_type;location;lat;lon;timestamp;temperature;humidity
64939;DHT22;51453;47.738;7.420;2023-07-31T00:00:42;17.70;99.90
64939;DHT22;51453;47.738;7.420;2023-07-31T00:03:08;17.70;99.90
64939;DHT22;51453;47.738;7.420;2023-07-31T00:05:33;17.70;99.90
64939;DHT22;51453;47.738;7.420;2023-07-31T00:07:59;17.70;99.90
64939;DHT22;51453;47.738;7.420;2023-07-31T00:10:24;17.60;99.90
64939;DHT22;51453;47.738;7.420;2023-07-31T00:12:50;17.60;99.90
64939;DHT22;51453;47.738;7.420;2023-07-31T00:15:16;17.60;99.90
64939;DHT22;51453;47.738;7.420;2023-07-31T00:17:41;17.60;99.90
64939;DHT22;51453;47.738;7.420;2023-07-31T00:20:07;17.60;99.90
64939;DHT22;51453;47.738;7.420;2023-07-31T00:22:33;17.60;99.90
64939;DHT22;51453;47.738;7.420;2023-07-31T00:24:59;17.60;99.90
64939;DHT22;51453;47.738;7.420;2023-07-31T00:27:25;17.60;99.90
64939;DHT22;51453;47.738;7.420;2023-07-31T00:29:51;17.60;99.90
64939;DHT22;51453;47.738;7.420;2023-07-31T00:32:16;17.50;99.90
64939;DHT22;51453;47.738;7.420;2023-07-31T00:34:42;17.50;99.90
64939;DHT22;51453;47.738;7.420;2023-07-31T00:37:07;17.40;99.90
64939;DHT22;51453;47.738;7.420;2023-07-31T00:39:34;17.40;99.90
64939;DHT22;51453;47.738;7.420;2023-07-31T00:41:59;17.30;99.90
64939;DHT22;51453;47.738;7.420;2023-07-31T00:44:25;17.30;99.90
64939;DHT22;51453;47.738;7.420;2023-07-31T00:46:51;17.20;99.90
64939;DHT22;51453;47.738;7.420;2023-07-31T00:49:16;17.20;99.90
64939;DHT22;51453;47.738;7.420;2023-07-31T00:51:42;17.10;99.90
64939;DHT22;51453;47.738;7.420;2023-07-31T00:54:08;17.10;99.90
64939;DHT22;51453;47.738;7.420;2023-07-31T00:56:34;17.10;99.90
64939;DHT22;51453;47.738;7.420;2023-07-31T00:59:00;17.00;99.90
64939;DHT22;51453;47.738;7.420;2023-07-31T01:01:26;17.00;99.90
64939;DHT22;51453;47.738;7.420;2023-07-31T01:03:52;17.00;99.90
64939;DHT22;51453;47.738;7.420;2023-07-31T01:09:02;17.00;99.90
64939;DHT22;51453;47.738;7.420;2023-07-31T01:11:35;16.90;99.90
64939;DHT22;51453;47.738;7.420;2023-07-31T01:14:02;16.90;99.90
64939;DHT22;51453;47.738;7.420;2023-07-31T01:16:28;16.90;99.90
64939;DHT22;51453;47.738;7.420;2023-07-31T01:18:54;16.90;99.90
64939;DHT22;51453;47.738;7.420;2023-07-31T01:26:39;16.70;99.90
64939;DHT22;51453;47.738;7.420;2023-07-31T01:29:26;16.70;99.90
64939;DHT22;51453;47.738;7.420;2023-07-31T01:31:56;16.70;99.90
64939;DHT22;51453;47.738;7.420;2023-07-31T01:34:26;16.70;99.90
64939;DHT22;51453;47.738;7.420;2023-07-31T01:36:52;16.60;99.90
64939;DHT22;51453;47.738;7.420;2023-07-31T01:39:20;16.60;99.90
64939;DHT22;51453;47.738;7.420;2023-07-31T01:41:46;16.60;99.90
64939;DHT22;51453;47.738;7.420;2023-07-31T01:44:11;16.60;99.90
64939;DHT22;51453;47.738;7.420;2023-07-31T01:46:37;16.60;99.90
64939;DHT22;51453;47.738;7.420;2023-07-31T01:49:03;16.50;99.90
64939;DHT22;51453;47.738;7.420;2023-07-31T01:51:31;16.50;99.90
64939;DHT22;51453;47.738;7.420;2023-07-31T01:53:59;16.50;99.90
64939;DHT22;51453;47.738;7.420;2023-07-31T01:56:25;16.50;99.90
64939;DHT22;51453;47.738;7.420;2023-07-31T01:58:51;16.50;99.90
64939;DHT22;51453;47.738;7.420;2023-07-31T02:01:16;16.50;99.90
64939;DHT22;51453;47.738;7.420;2023-07-31T02:03:42;16.40;99.90
64939;DHT22;51453;47.738;7.420;2023-07-31T02:06:08;16.40;99.90
64939;DHT22;51453;47.738;7.420;2023-07-31T02:08:33;16.40;99.90
64939;DHT22;51453;47.738;7.420;2023-07-31T02:10:59;16.30;99.90
64939;DHT22;51453;47.738;7.420;2023-07-31T02:13:24;16.30;99.90
64939;DHT22;51453;47.738;7.420;2023-07-31T02:15:50;16.30;99.90
64939;DHT22;51453;47.738;7.420;2023-07-31T02:18:16;16.30;99.90
64939;DHT22;51453;47.738;7.420;2023-07-31T02:20:42;16.20;99.90
64939;DHT22;51453;47.738;7.420;2023-07-31T02:23:07;16.20;99.90
64939;DHT22;51453;47.738;7.420;2023-07-31T02:25:33;16.20;99.90
64939;DHT22;51453;47.738;7.420;2023-07-31T02:27:59;16.20;99.90
64939;DHT22;51453;47.738;7.420;2023-07-31T02:30:24;16.10;99.90
64939;DHT22;51453;47.738;7.420;2023-07-31T02:32:50;16.10;99.90
64939;DHT22;51453;47.738;7.420;2023-07-31T02:35:15;16.10;99.90
64939;DHT22;51453;47.738;7.420;2023-07-31T02:37:42;16.10;99.90
64939;DHT22;51453;47.738;7.420;2023-07-31T02:40:08;16.10;99.90
64939;DHT22;51453;47.738;7.420;2023-07-31T02:42:34;16.10;99.90
64939;DHT22;51453;47.738;7.420;2023-07-31T02:44:59;16.00;99.90
64939;DHT22;51453;47.738;7.420;2023-07-31T02:47:25;16.00;99.90
64939;DHT22;51453;47.738;7.420;2023-07-31T02:49:50;16.00;99.90
64939;DHT22;51453;47.738;7.420;2023-07-31T02:52:16;16.00;99.90
64939;DHT22;51453;47.738;7.420;2023-07-31T02:54:42;16.00;99.90
64939;DHT22;51453;47.738;7.420;2023-07-31T02:57:07;16.00;99.90
64939;DHT22;51453;47.738;7.420;2023-07-31T02:59:33;16.00;99.90
64939;DHT22;51453;47.738;7.420;2023-07-31T03:01:59;16.00;99.90
64939;DHT22;51453;47.738;7.420;2023-07-31T03:04:24;16.00;99.90
64939;DHT22;51453;47.738;7.420;2023-07-31T03:06:50;16.00;99.90
64939;DHT22;51453;47.738;7.420;2023-07-31T03:09:15;16.00;99.90
64939;DHT22;51453;47.738;7.420;2023-07-31T03:11:41;16.00;99.90
64939;DHT22;51453;47.738;7.420;2023-07-31T03:14:07;16.00;99.90
64939;DHT22;51453;47.738;7.420;2023-07-31T03:16:32;15.90;99.90
64939;DHT22;51453;47.738;7.420;2023-07-31T03:18:58;15.90;99.90
64939;DHT22;51453;47.738;7.420;2023-07-31T03:21:23;15.90;99.90
64939;DHT22;51453;47.738;7.420;2023-07-31T03:23:49;15.90;99.90
64939;DHT22;51453;47.738;7.420;2023-07-31T03:26:15;15.90;99.90
64939;DHT22;51453;47.738;7.420;2023-07-31T03:28:40;15.90;99.90
64939;DHT22;51453;47.738;7.420;2023-07-31T03:31:06;15.90;99.90
64939;DHT22;51453;47.738;7.420;2023-07-31T03:33:33;15.90;99.90
64939;DHT22;51453;47.738;7.420;2023-07-31T03:35:59;15.90;99.90
64939;DHT22;51453;47.738;7.420;2023-07-31T03:38:24;15.90;99.90
64939;DHT22;51453;47.738;7.420;2023-07-31T03:40:50;15.80;99.90
64939;DHT22;51453;47.738;7.420;2023-07-31T03:43:16;15.80;99.90
64939;DHT22;51453;47.738;7.420;2023-07-31T03:45:41;15.80;99.90
64939;DHT22;51453;47.738;7.420;2023-07-31T03:48:07;15.80;99.90
64939;DHT22;51453;47.738;7.420;2023-07-31T03:50:34;15.80;99.90
64939;DHT22;51453;47.738;7.420;2023-07-31T03:52:59;15.80;99.90
64939;DHT22;51453;47.738;7.420;2023-07-31T03:55:25;15.80;99.90
64939;DHT22;51453;47.738;7.420;2023-07-31T03:57:51;15.80;99.90
64939;DHT22;51453;47.738;7.420;2023-07-31T04:00:16;15.80;99.90
64939;DHT22;51453;47.738;7.420;2023-07-31T04:02:42;15.80;99.90
64939;DHT22;51453;47.738;7.420;2023-07-31T04:05:08;15.80;99.90
64939;DHT22;51453;47.738;7.420;2023-07-31T04:07:33;15.80;99.90
64939;DHT22;51453;47.738;7.420;2023-07-31T04:09:59;15.70;99.90
64939;DHT22;51453;47.738;7.420;2023-07-31T04:12:25;15.70;99.90
64939;DHT22;51453;47.738;7.420;2023-07-31T04:14:51;15.70;99.90
64939;DHT22;51453;47.738;7.420;2023-07-31T04:17:19;15.70;99.90
64939;DHT22;51453;47.738;7.420;2023-07-31T04:19:45;15.70;99.90
64939;DHT22;51453;47.738;7.420;2023-07-31T04:22:11;15.70;99.90
64939;DHT22;51453;47.738;7.420;2023-07-31T04:24:36;15.70;99.90
64939;DHT22;51453;47.738;7.420;2023-07-31T04:27:02;15.70;99.90
64939;DHT22;51453;47.738;7.420;2023-07-31T04:29:28;15.70;99.90
64939;DHT22;51453;47.738;7.420;2023-07-31T04:31:53;15.70;99.90
64939;DHT22;51453;47.738;7.420;2023-07-31T04:34:19;15.70;99.90
64939;DHT22;51453;47.738;7.420;2023-07-31T04:36:44;15.70;99.90
64939;DHT22;51453;47.738;7.420;2023-07-31T04:39:10;15.70;99.90
64939;DHT22;51453;47.738;7.420;2023-07-31T04:41:36;15.70;99.90
64939;DHT22;51453;47.738;7.420;2023-07-31T04:44:01;15.80;99.90
64939;DHT22;51453;47.738;7.420;2023-07-31T04:46:29;15.80;99.90
64939;DHT22;51453;47.738;7.420;2023-07-31T04:48:54;15.80;99.90
64939;DHT22;51453;47.738;7.420;2023-07-31T04:51:20;15.90;99.90
64939;DHT22;51453;47.738;7.420;2023-07-31T04:53:46;15.90;99.90
64939;DHT22;51453;47.738;7.420;2023-07-31T04:56:12;15.90;99.90
64939;DHT22;51453;47.738;7.420;2023-07-31T04:58:37;16.00;99.90
64939;DHT22;51453;47.738;7.420;2023-07-31T05:01:03;16.00;99.90
64939;DHT22;51453;47.738;7.420;2023-07-31T05:03:29;16.00;99.90
64939;DHT22;51453;47.738;7.420;2023-07-31T05:05:54;16.00;99.90
64939;DHT22;51453;47.738;7.420;2023-07-31T05:08:20;16.10;99.90
64939;DHT22;51453;47.738;7.420;2023-07-31T05:10:48;16.10;99.90
64939;DHT22;51453;47.738;7.420;2023-07-31T05:13:14;16.10;99.90
64939;DHT22;51453;47.738;7.420;2023-07-31T05:15:41;16.10;99.90
64939;DHT22;51453;47.738;7.420;2023-07-31T05:18:06;16.10;99.90
64939;DHT22;51453;47.738;7.420;2023-07-31T05:20:32;16.20;99.90
64939;DHT22;51453;47.738;7.420;2023-07-31T05:22:58;16.20;99.90
64939;DHT22;51453;47.738;7.420;2023-07-31T05:25:23;16.20;99.90
64939;DHT22;51453;47.738;7.420;2023-07-31T05:27:49;16.20;99.90
64939;DHT22;51453;47.738;7.420;2023-07-31T05:30:15;16.20;99.90
64939;DHT22;51453;47.738;7.420;2023-07-31T05:32:40;16.30;99.90
64939;DHT22;51453;47.738;7.420;2023-07-31T05:35:06;16.40;99.90
64939;DHT22;51453;47.738;7.420;2023-07-31T05:37:32;16.40;99.90
64939;DHT22;51453;47.738;7.420;2023-07-31T05:39:58;16.50;99.90
64939;DHT22;51453;47.738;7.420;2023-07-31T05:42:23;16.60;99.90
64939;DHT22;51453;47.738;7.420;2023-07-31T05:44:49;16.70;99.90
64939;DHT22;51453;47.738;7.420;2023-07-31T05:47:15;16.70;99.90
64939;DHT22;51453;47.738;7.420;2023-07-31T05:49:40;16.80;99.90
64939;DHT22;51453;47.738;7.420;2023-07-31T05:52:06;16.80;99.90
64939;DHT22;51453;47.738;7.420;2023-07-31T05:54:32;16.90;99.90
64939;DHT22;51453;47.738;7.420;2023-07-31T05:56:58;16.90;99.90
64939;DHT22;51453;47.738;7.420;2023-07-31T05:59:24;16.90;99.90
64939;DHT22;51453;47.738;7.420;2023-07-31T06:01:49;17.00;99.90
64939;DHT22;51453;47.738;7.420;2023-07-31T06:04:15;17.10;99.90
64939;DHT22;51453;47.738;7.420;2023-07-31T06:06:40;17.20;99.90
64939;DHT22;51453;47.738;7.420;2023-07-31T06:09:06;17.40;99.90
64939;DHT22;51453;47.738;7.420;2023-07-31T06:11:32;17.60;99.90
64939;DHT22;51453;47.738;7.420;2023-07-31T06:13:58;17.70;99.90
64939;DHT22;51453;47.738;7.420;2023-07-31T06:16:25;17.70;99.90
64939;DHT22;51453;47.738;7.420;2023-07-31T06:18:50;17.80;99.90
64939;DHT22;51453;47.738;7.420;2023-07-31T06:21:17;17.90;99.90
64939;DHT22;51453;47.738;7.420;2023-07-31T06:23:42;17.80;99.90
64939;DHT22;51453;47.738;7.420;2023-07-31T06:26:08;17.80;99.90
64939;DHT22;51453;47.738;7.420;2023-07-31T06:28:34;17.80;99.90
64939;DHT22;51453;47.738;7.420;2023-07-31T06:31:00;17.80;99.90
64939;DHT22;51453;47.738;7.420;2023-07-31T06:33:26;17.90;99.90
64939;DHT22;51453;47.738;7.420;2023-07-31T06:35:52;17.90;99.90
64939;DHT22;51453;47.738;7.420;2023-07-31T06:38:25;18.00;99.90
64939;DHT22;51453;47.738;7.420;2023-07-31T06:40:51;18.20;99.90
64939;DHT22;51453;47.738;7.420;2023-07-31T06:43:17;18.30;99.90
64939;DHT22;51453;47.738;7.420;2023-07-31T06:45:43;18.50;99.90
64939;DHT22;51453;47.738;7.420;2023-07-31T06:48:09;18.70;99.90
64939;DHT22;51453;47.738;7.420;2023-07-31T06:50:34;18.70;99.90
64939;DHT22;51453;47.738;7.420;2023-07-31T06:53:00;18.80;99.90
64939;DHT22;51453;47.738;7.420;2023-07-31T06:55:26;19.00;99.90
64939;DHT22;51453;47.738;7.420;2023-07-31T06:57:54;19.20;99.90
64939;DHT22;51453;47.738;7.420;2023-07-31T07:00:21;19.50;99.90
64939;DHT22;51453;47.738;7.420;2023-07-31T07:02:47;19.60;99.90
64939;DHT22;51453;47.738;7.420;2023-07-31T07:05:13;19.70;99.90
64939;DHT22;51453;47.738;7.420;2023-07-31T07:07:39;19.80;99.90
64939;DHT22;51453;47.738;7.420;2023-07-31T07:10:06;19.70;99.90
64939;DHT22;51453;47.738;7.420;2023-07-31T07:12:32;19.70;99.90
64939;DHT22;51453;47.738;7.420;2023-07-31T07:14:59;19.70;99.90
64939;DHT22;51453;47.738;7.420;2023-07-31T07:17:25;19.60;99.90
64939;DHT22;51453;47.738;7.420;2023-07-31T07:19:51;19.60;99.90
64939;DHT22;51453;47.738;7.420;2023-07-31T07:22:17;19.70;99.90
64939;DHT22;51453;47.738;7.420;2023-07-31T07:24:43;19.80;99.90
64939;DHT22;51453;47.738;7.420;2023-07-31T07:27:09;19.80;99.90
64939;DHT22;51453;47.738;7.420;2023-07-31T07:29:35;19.90;99.90
64939;DHT22;51453;47.738;7.420;2023-07-31T07:32:01;20.20;99.90
64939;DHT22;51453;47.738;7.420;2023-07-31T07:34:27;20.40;99.90
64939;DHT22;51453;47.738;7.420;2023-07-31T07:36:54;20.70;99.90
64939;DHT22;51453;47.738;7.420;2023-07-31T07:39:20;20.80;99.90
64939;DHT22;51453;47.738;7.420;2023-07-31T07:41:46;20.80;99.90
64939;DHT22;51453;47.738;7.420;2023-07-31T07:44:12;20.80;99.90
64939;DHT22;51453;47.738;7.420;2023-07-31T07:46:38;20.60;99.90
64939;DHT22;51453;47.738;7.420;2023-07-31T07:49:03;20.50;99.90
64939;DHT22;51453;47.738;7.420;2023-07-31T07:51:29;20.60;99.90
64939;DHT22;51453;47.738;7.420;2023-07-31T07:54:00;20.70;99.90
64939;DHT22;51453;47.738;7.420;2023-07-31T07:56:26;20.60;99.90
64939;DHT22;51453;47.738;7.420;2023-07-31T07:58:53;20.60;99.90
64939;DHT22;51453;47.738;7.420;2023-07-31T08:01:18;20.60;99.90
64939;DHT22;51453;47.738;7.420;2023-07-31T08:03:44;20.80;99.90
64939;DHT22;51453;47.738;7.420;2023-07-31T08:06:10;20.90;99.90
64939;DHT22;51453;47.738;7.420;2023-07-31T08:08:36;20.90;99.90
64939;DHT22;51453;47.738;7.420;2023-07-31T08:11:02;21.10;99.90
64939;DHT22;51453;47.738;7.420;2023-07-31T08:13:28;21.40;99.90
64939;DHT22;51453;47.738;7.420;2023-07-31T08:15:54;21.60;99.90
64939;DHT22;51453;47.738;7.420;2023-07-31T08:18:20;21.70;99.90
64939;DHT22;51453;47.738;7.420;2023-07-31T08:20:46;21.80;99.90
64939;DHT22;51453;47.738;7.420;2023-07-31T08:23:11;22.00;99.90
64939;DHT22;51453;47.738;7.420;2023-07-31T08:25:37;22.10;99.90
64939;DHT22;51453;47.738;7.420;2023-07-31T08:28:04;22.20;99.90
64939;DHT22;51453;47.738;7.420;2023-07-31T08:30:30;22.20;99.90
64939;DHT22;51453;47.738;7.420;2023-07-31T08:32:56;22.30;99.90
64939;DHT22;51453;47.738;7.420;2023-07-31T08:35:23;22.40;99.90
64939;DHT22;51453;47.738;7.420;2023-07-31T08:37:49;22.60;99.90
64939;DHT22;51453;47.738;7.420;2023-07-31T08:40:14;22.70;99.90
64939;DHT22;51453;47.738;7.420;2023-07-31T08:42:47;22.90;99.90
64939;DHT22;51453;47.738;7.420;2023-07-31T08:45:18;22.90;99.90
64939;DHT22;51453;47.738;7.420;2023-07-31T08:47:46;23.00;99.90
64939;DHT22;51453;47.738;7.420;2023-07-31T08:50:12;23.00;99.90
64939;DHT22;51453;47.738;7.420;2023-07-31T08:52:38;22.90;99.90
64939;DHT22;51453;47.738;7.420;2023-07-31T08:55:05;23.00;99.90
64939;DHT22;51453;47.738;7.420;2023-07-31T08:57:32;22.90;99.90
64939;DHT22;51453;47.738;7.420;2023-07-31T09:00:00;22.80;99.90
64939;DHT22;51453;47.738;7.420;2023-07-31T09:02:30;22.70;99.90
64939;DHT22;51453;47.738;7.420;2023-07-31T09:04:57;22.80;99.90
64939;DHT22;51453;47.738;7.420;2023-07-31T09:07:23;22.90;99.90
64939;DHT22;51453;47.738;7.420;2023-07-31T09:09:49;23.00;99.90
64939;DHT22;51453;47.738;7.420;2023-07-31T09:12:15;23.10;99.90
64939;DHT22;51453;47.738;7.420;2023-07-31T09:14:42;23.10;99.90
64939;DHT22;51453;47.738;7.420;2023-07-31T09:17:09;23.30;99.90
64939;DHT22;51453;47.738;7.420;2023-07-31T09:19:35;23.40;99.90
64939;DHT22;51453;47.738;7.420;2023-07-31T09:22:07;23.60;99.90
64939;DHT22;51453;47.738;7.420;2023-07-31T09:24:34;23.70;99.90
64939;DHT22;51453;47.738;7.420;2023-07-31T09:27:00;23.80;99.90
64939;DHT22;51453;47.738;7.420;2023-07-31T09:29:28;23.80;99.90
64939;DHT22;51453;47.738;7.420;2023-07-31T09:31:55;23.80;99.90
64939;DHT22;51453;47.738;7.420;2023-07-31T09:34:38;23.70;99.90
64939;DHT22;51453;47.738;7.420;2023-07-31T09:37:07;23.80;99.90
64939;DHT22;51453;47.738;7.420;2023-07-31T09:39:45;23.80;99.90
64939;DHT22;51453;47.738;7.420;2023-07-31T09:42:11;23.90;99.90
64939;DHT22;51453;47.738;7.420;2023-07-31T09:44:38;24.00;99.90
64939;DHT22;51453;47.738;7.420;2023-07-31T09:47:05;24.10;99.90
64939;DHT22;51453;47.738;7.420;2023-07-31T09:49:31;24.00;99.90
64939;DHT22;51453;47.738;7.420;2023-07-31T09:51:56;23.80;99.90
64939;DHT22;51453;47.738;7.420;2023-07-31T09:54:22;23.70;99.90
64939;DHT22;51453;47.738;7.420;2023-07-31T09:56:49;23.50;99.90
64939;DHT22;51453;47.738;7.420;2023-07-31T09:59:16;23.40;99.90
64939;DHT22;51453;47.738;7.420;2023-07-31T10:01:43;23.40;99.90
64939;DHT22;51453;47.738;7.420;2023-07-31T10:04:10;23.50;99.90
64939;DHT22;51453;47.738;7.420;2023-07-31T10:06:37;23.60;99.90
64939;DHT22;51453;47.738;7.420;2023-07-31T10:09:06;23.70;99.90
64939;DHT22;51453;47.738;7.420;2023-07-31T10:11:34;23.80;99.90
64939;DHT22;51453;47.738;7.420;2023-07-31T10:14:02;23.80;99.90
64939;DHT22;51453;47.738;7.420;2023-07-31T10:16:29;23.90;99.90
64939;DHT22;51453;47.738;7.420;2023-07-31T10:18:55;23.80;99.90
64939;DHT22;51453;47.738;7.420;2023-07-31T10:21:21;23.50;99.90
64939;DHT22;51453;47.738;7.420;2023-07-31T10:23:47;23.40;99.90
64939;DHT22;51453;47.738;7.420;2023-07-31T10:26:16;23.40;99.90
64939;DHT22;51453;47.738;7.420;2023-07-31T10:28:43;23.40;99.90
64939;DHT22;51453;47.738;7.420;2023-07-31T10:31:09;23.40;99.90
64939;DHT22;51453;47.738;7.420;2023-07-31T10:33:35;23.50;99.90
64939;DHT22;51453;47.738;7.420;2023-07-31T10:36:20;23.50;99.90
64939;DHT22;51453;47.738;7.420;2023-07-31T10:38:48;23.80;99.90
64939;DHT22;51453;47.738;7.420;2023-07-31T10:41:14;24.10;99.90
64939;DHT22;51453;47.738;7.420;2023-07-31T10:43:40;24.40;99.90
64939;DHT22;51453;47.738;7.420;2023-07-31T10:46:13;24.60;99.90
64939;DHT22;51453;47.738;7.420;2023-07-31T10:48:40;24.90;99.90
64939;DHT22;51453;47.738;7.420;2023-07-31T10:51:11;25.00;99.90
64939;DHT22;51453;47.738;7.420;2023-07-31T10:53:38;25.00;99.90
64939;DHT22;51453;47.738;7.420;2023-07-31T10:56:09;25.10;99.90
64939;DHT22;51453;47.738;7.420;2023-07-31T10:58:37;25.00;99.90
64939;DHT22;51453;47.738;7.420;2023-07-31T11:01:04;24.90;99.90
64939;DHT22;51453;47.738;7.420;2023-07-31T11:03:49;24.90;99.90
64939;DHT22;51453;47.738;7.420;2023-07-31T11:06:18;24.80;99.90
64939;DHT22;51453;47.738;7.420;2023-07-31T11:08:45;24.70;99.90
64939;DHT22;51453;47.738;7.420;2023-07-31T11:11:14;24.70;99.90
64939;DHT22;51453;47.738;7.420;2023-07-31T11:13:42;24.50;99.90
64939;DHT22;51453;47.738;7.420;2023-07-31T11:16:09;24.60;99.90
64939;DHT22;51453;47.738;7.420;2023-07-31T11:18:37;24.60;99.90
64939;DHT22;51453;47.738;7.420;2023-07-31T11:21:03;24.70;99.90
64939;DHT22;51453;47.738;7.420;2023-07-31T11:23:30;24.80;99.90
64939;DHT22;51453;47.738;7.420;2023-07-31T11:25:59;24.80;99.90
64939;DHT22;51453;47.738;7.420;2023-07-31T11:28:25;24.90;99.90
64939;DHT22;51453;47.738;7.420;2023-07-31T11:30:50;24.90;99.90
64939;DHT22;51453;47.738;7.420;2023-07-31T11:33:16;24.90;99.90
64939;DHT22;51453;47.738;7.420;2023-07-31T11:35:45;24.90;99.90
64939;DHT22;51453;47.738;7.420;2023-07-31T11:38:25;24.90;99.90
64939;DHT22;51453;47.738;7.420;2023-07-31T11:40:54;25.10;99.90
64939;DHT22;51453;47.738;7.420;2023-07-31T11:43:21;25.10;99.90
64939;DHT22;51453;47.738;7.420;2023-07-31T11:45:52;25.00;99.90
64939;DHT22;51453;47.738;7.420;2023-07-31T11:48:25;25.20;99.90
64939;DHT22;51453;47.738;7.420;2023-07-31T11:51:02;25.30;99.90
64939;DHT22;51453;47.738;7.420;2023-07-31T11:53:57;25.50;99.90
64939;DHT22;51453;47.738;7.420;2023-07-31T11:56:24;25.60;99.90
64939;DHT22;51453;47.738;7.420;2023-07-31T11:58:59;25.70;99.90
64939;DHT22;51453;47.738;7.420;2023-07-31T12:01:28;25.70;99.90
64939;DHT22;51453;47.738;7.420;2023-07-31T12:03:54;25.80;99.90
64939;DHT22;51453;47.738;7.420;2023-07-31T12:06:20;25.90;99.90
64939;DHT22;51453;47.738;7.420;2023-07-31T12:08:46;25.90;99.90
64939;DHT22;51453;47.738;7.420;2023-07-31T12:11:12;25.90;99.90
64939;DHT22;51453;47.738;7.420;2023-07-31T12:13:43;25.90;99.90
64939;DHT22;51453;47.738;7.420;2023-07-31T12:16:08;26.00;99.90
64939;DHT22;51453;47.738;7.420;2023-07-31T12:18:36;26.00;99.90
64939;DHT22;51453;47.738;7.420;2023-07-31T12:21:06;26.10;99.90
64939;DHT22;51453;47.738;7.420;2023-07-31T12:23:33;26.10;99.90
64939;DHT22;51453;47.738;7.420;2023-07-31T12:26:16;26.10;99.90
64939;DHT22;51453;47.738;7.420;2023-07-31T12:31:16;26.00;99.90
64939;DHT22;51453;47.738;7.420;2023-07-31T12:33:46;25.70;99.90
64939;DHT22;51453;47.738;7.420;2023-07-31T12:36:14;25.60;99.90
64939;DHT22;51453;47.738;7.420;2023-07-31T12:38:41;25.50;99.90
64939;DHT22;51453;47.738;7.420;2023-07-31T12:41:07;25.40;99.90
64939;DHT22;51453;47.738;7.420;2023-07-31T12:43:36;25.40;99.90
64939;DHT22;51453;47.738;7.420;2023-07-31T12:46:03;25.30;99.90
64939;DHT22;51453;47.738;7.420;2023-07-31T12:48:29;25.30;99.90
64939;DHT22;51453;47.738;7.420;2023-07-31T12:50:54;25.10;99.90
64939;DHT22;51453;47.738;7.420;2023-07-31T12:53:20;25.20;99.90
64939;DHT22;51453;47.738;7.420;2023-07-31T12:55:46;25.30;99.90
64939;DHT22;51453;47.738;7.420;2023-07-31T12:58:12;25.50;99.90
64939;DHT22;51453;47.738;7.420;2023-07-31T13:00:37;25.60;99.90
64939;DHT22;51453;47.738;7.420;2023-07-31T13:03:03;25.60;99.90
64939;DHT22;51453;47.738;7.420;2023-07-31T13:05:29;25.60;99.90
64939;DHT22;51453;47.738;7.420;2023-07-31T13:07:54;25.60;99.90
64939;DHT22;51453;47.738;7.420;2023-07-31T13:10:21;25.50;99.90
64939;DHT22;51453;47.738;7.420;2023-07-31T13:12:47;25.50;99.90
64939;DHT22;51453;47.738;7.420;2023-07-31T13:15:13;25.70;99.90
64939;DHT22;51453;47.738;7.420;2023-07-31T13:17:39;25.80;99.90
64939;DHT22;51453;47.738;7.420;2023-07-31T13:20:05;25.90;99.90
64939;DHT22;51453;47.738;7.420;2023-07-31T13:22:31;25.90;99.90
64939;DHT22;51453;47.738;7.420;2023-07-31T13:24:56;26.00;99.90
64939;DHT22;51453;47.738;7.420;2023-07-31T13:27:22;26.00;99.90
64939;DHT22;51453;47.738;7.420;2023-07-31T13:29:49;26.00;99.90
64939;DHT22;51453;47.738;7.420;2023-07-31T13:32:18;26.10;99.90
64939;DHT22;51453;47.738;7.420;2023-07-31T13:34:45;26.10;99.90
64939;DHT22;51453;47.738;7.420;2023-07-31T13:37:11;26.10;99.90
64939;DHT22;51453;47.738;7.420;2023-07-31T13:39:37;26.10;99.90
64939;DHT22;51453;47.738;7.420;2023-07-31T13:42:07;26.10;99.90
64939;DHT22;51453;47.738;7.420;2023-07-31T13:44:34;26.00;99.90
64939;DHT22;51453;47.738;7.420;2023-07-31T13:47:00;25.90;99.90
64939;DHT22;51453;47.738;7.420;2023-07-31T13:49:26;25.90;99.90
64939;DHT22;51453;47.738;7.420;2023-07-31T13:51:52;25.90;99.90
64939;DHT22;51453;47.738;7.420;2023-07-31T13:54:17;26.00;99.90
64939;DHT22;51453;47.738;7.420;2023-07-31T13:56:44;26.10;99.90
64939;DHT22;51453;47.738;7.420;2023-07-31T13:59:10;26.20;99.90
64939;DHT22;51453;47.738;7.420;2023-07-31T14:01:36;26.20;99.90
64939;DHT22;51453;47.738;7.420;2023-07-31T14:04:01;26.20;99.90
64939;DHT22;51453;47.738;7.420;2023-07-31T14:06:27;26.30;99.90
64939;DHT22;51453;47.738;7.420;2023-07-31T14:08:53;26.30;99.90
64939;DHT22;51453;47.738;7.420;2023-07-31T14:11:19;26.40;99.90
64939;DHT22;51453;47.738;7.420;2023-07-31T14:13:44;26.30;99.90
64939;DHT22;51453;47.738;7.420;2023-07-31T14:16:10;26.30;99.90
64939;DHT22;51453;47.738;7.420;2023-07-31T14:18:35;26.20;99.90
64939;DHT22;51453;47.738;7.420;2023-07-31T14:21:01;26.10;99.90
64939;DHT22;51453;47.738;7.420;2023-07-31T14:23:27;26.10;99.90
64939;DHT22;51453;47.738;7.420;2023-07-31T14:25:52;26.00;99.90
64939;DHT22;51453;47.738;7.420;2023-07-31T14:28:18;26.00;99.90
64939;DHT22;51453;47.738;7.420;2023-07-31T14:30:43;26.00;99.90
64939;DHT22;51453;47.738;7.420;2023-07-31T14:33:09;25.90;99.90
64939;DHT22;51453;47.738;7.420;2023-07-31T14:35:35;25.90;99.90
64939;DHT22;51453;47.738;7.420;2023-07-31T14:38:01;26.00;99.90
64939;DHT22;51453;47.738;7.420;2023-07-31T14:40:27;25.90;99.90
64939;DHT22;51453;47.738;7.420;2023-07-31T14:42:53;25.80;99.90
64939;DHT22;51453;47.738;7.420;2023-07-31T14:45:18;25.70;99.90
64939;DHT22;51453;47.738;7.420;2023-07-31T14:47:44;25.60;99.90
64939;DHT22;51453;47.738;7.420;2023-07-31T14:50:10;25.50;99.90
64939;DHT22;51453;47.738;7.420;2023-07-31T14:52:36;25.50;99.90
64939;DHT22;51453;47.738;7.420;2023-07-31T14:55:01;25.40;99.90
64939;DHT22;51453;47.738;7.420;2023-07-31T14:57:27;25.20;99.90
64939;DHT22;51453;47.738;7.420;2023-07-31T14:59:53;25.10;99.90
64939;DHT22;51453;47.738;7.420;2023-07-31T15:02:18;25.00;99.90
64939;DHT22;51453;47.738;7.420;2023-07-31T15:04:44;25.00;99.90
64939;DHT22;51453;47.738;7.420;2023-07-31T15:07:09;24.90;99.90
64939;DHT22;51453;47.738;7.420;2023-07-31T15:09:35;24.70;99.90
64939;DHT22;51453;47.738;7.420;2023-07-31T15:12:01;24.60;99.90
64939;DHT22;51453;47.738;7.420;2023-07-31T15:14:27;24.60;99.90
64939;DHT22;51453;47.738;7.420;2023-07-31T15:16:56;24.60;99.90
64939;DHT22;51453;47.738;7.420;2023-07-31T15:19:22;24.50;99.90
64939;DHT22;51453;47.738;7.420;2023-07-31T15:21:50;24.50;99.90
64939;DHT22;51453;47.738;7.420;2023-07-31T15:24:17;24.40;99.90
64939;DHT22;51453;47.738;7.420;2023-07-31T15:26:43;24.40;99.90
64939;DHT22;51453;47.738;7.420;2023-07-31T15:29:08;24.40;99.90
64939;DHT22;51453;47.738;7.420;2023-07-31T15:31:35;24.30;99.90
64939;DHT22;51453;47.738;7.420;2023-07-31T15:34:01;24.30;99.90
64939;DHT22;51453;47.738;7.420;2023-07-31T15:36:27;24.30;99.90